createdAt,value
2022-12-18T00:03:02.081Z,7.77
2022-12-18T00:06:04.372Z,7.93
2022-12-18T00:09:06.428Z,8.57
2022-12-18T00:15:17.958Z,7.90
2022-12-18T00:18:20.758Z,7.10
2022-12-18T00:21:23.310Z,8.70
2022-12-18T00:24:25.569Z,7.93
2022-12-18T00:27:27.618Z,7.53
2022-12-18T00:30:29.738Z,7.90
2022-12-18T00:33:32.027Z,7.30
2022-12-18T00:36:35.573Z,7.00
2022-12-18T00:39:37.610Z,6.60
2022-12-18T00:42:57.954Z,7.20
2022-12-18T00:46:00.079Z,7.37
2022-12-18T00:49:02.405Z,6.97
2022-12-18T00:52:04.606Z,7.10
2022-12-18T00:55:07.354Z,6.93
2022-12-18T00:58:11.350Z,7.50
2022-12-18T01:01:13.742Z,6.37
2022-12-18T01:04:16.687Z,6.60
2022-12-18T01:07:21.109Z,6.17
2022-12-18T01:10:24.695Z,5.90
2022-12-18T01:13:26.812Z,6.37
2022-12-18T01:16:29.056Z,6.10
2022-12-18T01:19:32.312Z,5.47
2022-12-18T01:22:34.462Z,5.47
2022-12-18T01:25:39.873Z,5.50
2022-12-18T01:28:45.730Z,6.00
2022-12-18T01:31:47.819Z,5.43
2022-12-18T01:34:49.959Z,5.30
2022-12-18T01:37:56.586Z,6.20
2022-12-18T01:41:00.053Z,5.90
2022-12-18T01:44:03.522Z,6.37
2022-12-18T01:47:06.583Z,6.30
2022-12-18T01:50:19.504Z,6.07
2022-12-18T01:53:24.666Z,6.57
2022-12-18T01:56:26.897Z,7.17
2022-12-18T01:59:31.338Z,7.73
2022-12-18T02:02:34.199Z,7.83
2022-12-18T02:06:05.088Z,7.70
2022-12-18T02:09:13.517Z,8.80
2022-12-18T02:12:18.985Z,8.20
2022-12-18T02:15:34.295Z,8.33
2022-12-18T02:18:45.656Z,8.40
2022-12-18T02:21:51.910Z,8.90
2022-12-18T02:25:11.897Z,9.80
2022-12-18T02:28:16.885Z,9.83
2022-12-18T02:31:25.106Z,9.97
2022-12-18T02:34:33.888Z,10.80
2022-12-18T02:37:38.348Z,10.23
2022-12-18T02:40:43.592Z,9.77
2022-12-18T02:44:03.541Z,10.70
2022-12-18T02:47:13.740Z,11.90
2022-12-18T02:50:38.217Z,11.83
2022-12-18T02:53:52.124Z,11.63
2022-12-18T02:56:57.750Z,13.07
2022-12-18T03:00:03.132Z,12.33
2022-12-18T03:03:20.301Z,12.70
2022-12-18T03:06:49.707Z,12.00
2022-12-18T03:09:55.738Z,11.53
2022-12-18T03:13:06.270Z,11.80
2022-12-18T03:16:16.358Z,11.87
2022-12-18T03:19:23.047Z,11.80
2022-12-18T03:22:31.466Z,10.23
2022-12-18T03:25:36.040Z,10.93
2022-12-18T03:28:43.672Z,11.03
2022-12-18T03:31:52.624Z,10.87
2022-12-18T03:35:02.150Z,9.40
2022-12-18T03:38:08.222Z,9.47
2022-12-18T03:41:24.359Z,8.43
2022-12-18T03:44:54.423Z,8.90
2022-12-18T03:48:14.205Z,8.70
2022-12-18T03:51:44.922Z,9.83
2022-12-18T03:54:48.443Z,8.60
2022-12-18T03:57:55.035Z,9.10
2022-12-18T04:01:03.451Z,9.17
2022-12-18T04:04:06.861Z,9.33
2022-12-18T04:07:13.257Z,8.00
2022-12-18T04:10:16.949Z,8.43
2022-12-18T04:13:30.088Z,8.63
2022-12-18T04:16:34.523Z,8.63
2022-12-18T04:19:39.177Z,9.53
2022-12-18T04:22:43.359Z,7.70
2022-12-18T04:25:48.110Z,8.93
2022-12-18T04:28:56.562Z,8.53
2022-12-18T04:31:58.621Z,8.20
2022-12-18T04:35:01.595Z,8.23
2022-12-18T04:38:03.692Z,8.43
2022-12-18T04:41:06.075Z,9.40
2022-12-18T04:44:08.251Z,9.60
2022-12-18T04:47:10.319Z,8.77
2022-12-18T04:50:12.477Z,8.30
2022-12-18T04:53:14.576Z,7.80
2022-12-18T04:56:17.482Z,8.37
2022-12-18T04:59:19.505Z,8.37
2022-12-18T05:02:21.727Z,8.50
2022-12-18T05:05:23.975Z,8.37
2022-12-18T05:08:26.215Z,7.80
2022-12-18T05:11:28.282Z,7.20
2022-12-18T05:14:30.536Z,8.50
2022-12-18T05:17:32.562Z,7.63
2022-12-18T05:20:34.777Z,7.37
2022-12-18T05:23:37.417Z,7.83
2022-12-18T05:26:39.761Z,7.23
2022-12-18T05:29:41.826Z,7.23
2022-12-18T05:32:44.050Z,8.00
2022-12-18T05:35:51.035Z,8.00
2022-12-18T05:38:53.071Z,6.77
2022-12-18T05:41:55.161Z,7.67
2022-12-18T05:44:57.299Z,9.73
2022-12-18T05:47:59.456Z,7.33
2022-12-18T05:51:10.115Z,8.00
2022-12-18T05:54:12.564Z,7.53
2022-12-18T05:57:14.762Z,7.60
2022-12-18T06:00:17.413Z,7.80
2022-12-18T06:03:19.567Z,7.60
2022-12-18T06:06:24.827Z,7.73
2022-12-18T06:09:26.875Z,7.90
2022-12-18T06:12:28.928Z,8.20
2022-12-18T06:15:31.056Z,7.80
2022-12-18T06:18:33.704Z,7.73
2022-12-18T06:21:35.890Z,7.93
2022-12-18T06:24:38.399Z,7.73
2022-12-18T06:27:40.479Z,8.63
2022-12-18T06:30:48.242Z,7.97
2022-12-18T06:33:50.309Z,6.93
2022-12-18T06:36:52.432Z,7.33
2022-12-18T06:39:55.220Z,7.83
2022-12-18T06:42:57.508Z,7.83
2022-12-18T06:46:01.489Z,8.30
2022-12-18T06:49:03.582Z,8.57
2022-12-18T06:52:05.671Z,8.23
2022-12-18T06:55:12.104Z,7.73
2022-12-18T06:58:14.255Z,7.63
2022-12-18T07:01:16.532Z,7.67
2022-12-18T07:04:18.726Z,7.83
2022-12-18T07:07:20.927Z,8.60
2022-12-18T07:10:22.971Z,8.27
2022-12-18T07:13:25.193Z,7.63
2022-12-18T07:16:29.527Z,7.67
2022-12-18T07:19:31.595Z,7.50
2022-12-18T07:22:34.426Z,8.13
2022-12-18T07:25:37.496Z,7.97
2022-12-18T07:28:40.933Z,7.97
2022-12-18T07:31:43.348Z,7.17
2022-12-18T07:34:45.513Z,8.27
2022-12-18T07:37:49.287Z,7.17
2022-12-18T07:40:51.377Z,7.67
2022-12-18T07:43:53.517Z,7.50
2022-12-18T07:46:55.631Z,7.53
2022-12-18T07:49:57.750Z,7.17
2022-12-18T07:53:04.687Z,8.20
2022-12-18T07:59:32.388Z,7.63
2022-12-18T08:02:34.569Z,7.43
2022-12-18T08:05:36.812Z,8.30
2022-12-18T08:08:39.001Z,8.77
2022-12-18T08:11:41.287Z,8.57
2022-12-18T08:14:43.418Z,8.83
2022-12-18T08:17:45.497Z,9.00
2022-12-18T08:20:47.568Z,8.67
2022-12-18T08:23:51.764Z,8.50
2022-12-18T08:27:20.844Z,9.57
2022-12-18T08:30:16.364Z,9.67
2022-12-18T08:33:18.423Z,8.37
2022-12-18T08:36:23.441Z,9.83
2022-12-18T08:39:26.632Z,8.70
2022-12-18T08:42:47.089Z,8.97
2022-12-18T08:45:50.185Z,8.70
2022-12-18T08:48:53.678Z,8.10
2022-12-18T08:51:58.350Z,8.37
2022-12-18T08:55:00.503Z,9.13
2022-12-18T08:58:02.503Z,9.20
2022-12-18T09:01:07.055Z,8.50
2022-12-18T09:04:10.657Z,8.53
2022-12-18T09:07:12.769Z,9.17
2022-12-18T09:10:14.953Z,9.40
2022-12-18T09:13:18.277Z,9.43
2022-12-18T09:16:21.084Z,9.83
2022-12-18T09:19:23.195Z,10.97
2022-12-18T09:22:25.216Z,10.33
2022-12-18T09:25:28.928Z,10.53
2022-12-18T09:28:31.083Z,12.73
2022-12-18T09:31:33.098Z,12.13
2022-12-18T09:34:35.392Z,11.70
2022-12-18T09:37:37.461Z,12.17
2022-12-18T09:40:48.611Z,12.57
2022-12-18T09:44:00.929Z,13.40
2022-12-18T09:47:31.838Z,12.23
2022-12-18T09:50:41.200Z,11.67
2022-12-18T09:53:51.881Z,13.60
2022-12-18T09:56:53.971Z,13.33
2022-12-18T10:00:11.480Z,13.37
2022-12-18T10:03:17.453Z,13.47
2022-12-18T10:06:43.384Z,12.93
2022-12-18T10:09:57.816Z,13.40
2022-12-18T10:13:21.018Z,14.30
2022-12-18T10:16:28.719Z,15.00
2022-12-18T10:19:30.771Z,13.90
2022-12-18T10:22:35.454Z,13.93
2022-12-18T10:25:47.128Z,13.73
2022-12-18T10:28:49.177Z,13.87
2022-12-18T10:31:52.796Z,14.87
2022-12-18T10:35:00.720Z,13.97
2022-12-18T10:38:07.253Z,14.50
2022-12-18T10:41:26.971Z,13.37
2022-12-18T10:44:29.685Z,14.00
2022-12-18T10:47:31.846Z,14.83
2022-12-18T10:51:09.065Z,14.67
2022-12-18T10:54:02.693Z,15.27
2022-12-18T10:57:28.058Z,16.00
2022-12-18T11:00:32.124Z,15.33
2022-12-18T11:03:37.405Z,15.03
2022-12-18T11:06:58.741Z,13.70
2022-12-18T11:10:02.468Z,14.30
2022-12-18T11:13:32.592Z,14.73
2022-12-18T11:16:38.661Z,16.13
2022-12-18T11:19:42.577Z,14.07
2022-12-18T11:22:44.782Z,15.63
2022-12-18T11:26:02.897Z,15.37
2022-12-18T11:29:18.866Z,16.57
2022-12-18T11:32:43.500Z,15.13
2022-12-18T11:35:53.280Z,15.53
2022-12-18T11:38:56.789Z,16.00
2022-12-18T11:42:24.417Z,17.17
2022-12-18T11:45:37.599Z,15.97
2022-12-18T11:48:46.278Z,16.40
2022-12-18T11:52:01.646Z,16.17
2022-12-18T11:55:12.772Z,15.33
2022-12-18T11:58:39.184Z,16.33
2022-12-18T12:01:51.964Z,16.37
2022-12-18T12:04:54.182Z,16.97
2022-12-18T12:08:40.849Z,16.07
2022-12-18T12:11:45.759Z,14.63
2022-12-18T12:15:18.646Z,14.80
2022-12-18T12:18:48.101Z,14.47
2022-12-18T12:21:56.577Z,15.00
2022-12-18T12:25:07.560Z,15.07
2022-12-18T12:28:15.244Z,14.03
2022-12-18T12:31:38.987Z,14.07
2022-12-18T12:35:30.891Z,14.63
2022-12-18T12:38:52.304Z,15.37
2022-12-18T12:42:18.678Z,15.60
2022-12-18T12:45:32.301Z,16.47
2022-12-18T12:48:37.014Z,15.27
2022-12-18T12:51:44.119Z,14.80
2022-12-18T12:54:47.982Z,14.93
2022-12-18T12:57:59.272Z,16.03
2022-12-18T13:01:06.554Z,14.73
2022-12-18T13:04:23.034Z,14.57
2022-12-18T13:07:27.943Z,16.20
2022-12-18T13:10:42.758Z,15.90
2022-12-18T13:13:53.287Z,16.43
2022-12-18T13:17:32.332Z,17.30
2022-12-18T13:20:38.576Z,19.27
2022-12-18T13:23:42.158Z,18.20
2022-12-18T13:26:44.518Z,19.17
2022-12-18T13:29:47.427Z,19.90
2022-12-18T13:32:49.658Z,18.90
2022-12-18T13:35:54.185Z,19.77
2022-12-18T13:39:25.794Z,19.17
2022-12-18T13:42:49.210Z,19.40
2022-12-18T13:46:07.837Z,19.23
2022-12-18T13:49:15.634Z,21.23
2022-12-18T13:52:25.756Z,22.40
2022-12-18T13:55:28.493Z,22.03
2022-12-18T13:58:30.678Z,22.40
2022-12-18T14:01:32.981Z,21.80
2022-12-18T14:04:36.904Z,22.13
2022-12-18T14:07:42.970Z,19.87
2022-12-18T14:10:52.369Z,23.17
2022-12-18T14:13:54.522Z,22.17
2022-12-18T14:16:56.641Z,21.93
2022-12-18T14:19:59.361Z,20.60
2022-12-18T14:23:02.255Z,23.80
2022-12-18T14:26:30.629Z,23.00
2022-12-18T14:29:36.240Z,32.43
2022-12-18T14:32:38.394Z,24.83
2022-12-18T14:35:44.066Z,22.53
2022-12-18T14:38:50.662Z,22.10
2022-12-18T14:41:54.670Z,23.30
2022-12-18T14:45:39.116Z,24.27
2022-12-18T14:48:48.399Z,24.50
2022-12-18T14:51:54.374Z,26.17
2022-12-18T14:54:56.529Z,23.97
2022-12-18T14:57:59.275Z,22.77
2022-12-18T15:01:01.788Z,21.87
2022-12-18T15:04:06.795Z,21.50
2022-12-18T15:07:23.483Z,24.23
2022-12-18T15:10:29.497Z,21.13
2022-12-18T15:13:32.594Z,22.40
2022-12-18T15:16:37.495Z,25.33
2022-12-18T15:19:46.263Z,22.53
2022-12-18T15:22:51.037Z,23.07
2022-12-18T15:25:59.863Z,24.73
2022-12-18T15:29:04.944Z,25.40
2022-12-18T15:32:21.353Z,21.73
2022-12-18T15:35:26.774Z,25.27
2022-12-18T15:38:32.658Z,24.20
2022-12-18T15:41:37.959Z,25.17
2022-12-18T15:44:41.878Z,26.87
2022-12-18T15:47:48.164Z,27.43
2022-12-18T15:50:58.173Z,25.73
2022-12-18T15:54:05.611Z,25.60
2022-12-18T15:57:29.642Z,27.90
2022-12-18T16:00:42.665Z,24.20
2022-12-18T16:03:46.691Z,23.90
2022-12-18T16:10:17.281Z,25.17
2022-12-18T16:13:22.155Z,24.70
2022-12-18T16:16:25.288Z,26.87
2022-12-18T16:19:32.103Z,26.50
2022-12-18T16:22:38.014Z,25.63
2022-12-18T16:25:42.403Z,24.23
2022-12-18T16:28:48.504Z,24.40
2022-12-18T16:31:52.219Z,21.53
2022-12-18T16:35:00.871Z,23.27
2022-12-18T16:38:05.333Z,21.67
2022-12-18T16:41:33.236Z,23.73
2022-12-18T16:44:36.480Z,22.07
2022-12-18T16:47:42.426Z,20.00
2022-12-18T16:50:45.809Z,20.73
2022-12-18T16:53:48.686Z,26.13
2022-12-18T16:56:52.628Z,24.80
2022-12-18T16:59:59.909Z,22.70
2022-12-18T17:03:06.088Z,31.97
2022-12-18T17:06:12.269Z,23.13
2022-12-18T17:09:18.254Z,22.70
2022-12-18T17:12:22.947Z,23.03
2022-12-18T17:15:26.645Z,21.17
2022-12-18T17:18:30.396Z,23.13
2022-12-18T17:21:33.911Z,22.27
2022-12-18T17:24:38.390Z,23.23
2022-12-18T17:27:41.782Z,24.20
2022-12-18T17:30:46.332Z,22.77
2022-12-18T17:33:49.831Z,22.00
2022-12-18T17:36:54.450Z,20.43
2022-12-18T17:39:57.448Z,22.47
2022-12-18T17:43:03.508Z,20.03
2022-12-18T17:46:08.326Z,22.67
2022-12-18T17:49:13.125Z,20.93
2022-12-18T17:52:16.274Z,19.67
2022-12-18T17:55:19.618Z,19.53
2022-12-18T17:58:23.326Z,20.33
2022-12-18T18:01:26.875Z,19.80
2022-12-18T18:04:31.721Z,19.10
2022-12-18T18:07:35.069Z,19.67
2022-12-18T18:10:40.243Z,20.13
2022-12-18T18:14:02.397Z,19.73
2022-12-18T18:17:05.521Z,20.67
2022-12-18T18:20:10.775Z,18.77
2022-12-18T18:23:13.271Z,17.57
2022-12-18T18:26:18.081Z,20.30
2022-12-18T18:29:27.071Z,18.33
2022-12-18T18:32:32.062Z,16.63
2022-12-18T18:35:55.129Z,15.77
2022-12-18T18:39:01.101Z,16.23
2022-12-18T18:42:05.289Z,15.87
2022-12-18T18:45:08.989Z,24.70
2022-12-18T18:48:13.594Z,17.60
2022-12-18T18:51:21.787Z,16.90
2022-12-18T18:54:25.804Z,17.77
2022-12-18T18:57:30.496Z,14.87
2022-12-18T19:00:34.052Z,17.93
2022-12-18T19:03:40.169Z,20.20
2022-12-18T19:06:46.886Z,18.03
2022-12-18T19:09:52.610Z,16.57
2022-12-18T19:13:14.170Z,15.70
2022-12-18T19:16:17.188Z,15.87
2022-12-18T19:19:24.058Z,15.33
2022-12-18T19:22:28.444Z,15.43
2022-12-18T19:25:38.351Z,14.57
2022-12-18T19:28:44.737Z,15.83
2022-12-18T19:31:48.130Z,16.10
2022-12-18T19:34:51.891Z,16.00
2022-12-18T19:37:55.366Z,16.70
2022-12-18T19:41:00.452Z,16.07
2022-12-18T19:44:05.196Z,17.63
2022-12-18T19:47:11.463Z,16.63
2022-12-18T19:50:14.334Z,18.33
2022-12-18T19:53:17.034Z,16.77
2022-12-18T19:56:22.577Z,18.10
2022-12-18T19:59:25.753Z,17.67
2022-12-18T20:02:30.963Z,18.43
2022-12-18T20:05:35.540Z,19.10
2022-12-18T20:08:38.903Z,18.50
2022-12-18T20:11:42.558Z,18.23
2022-12-18T20:14:45.552Z,18.70
2022-12-18T20:17:48.461Z,18.40
2022-12-18T20:20:51.228Z,19.07
2022-12-18T20:23:56.062Z,19.93
2022-12-18T20:26:59.421Z,19.10
2022-12-18T20:30:02.678Z,18.17
2022-12-18T20:33:05.687Z,18.70
2022-12-18T20:36:13.138Z,20.33
2022-12-18T20:39:18.485Z,19.57
2022-12-18T20:42:21.773Z,19.50
2022-12-18T20:45:24.963Z,20.03
2022-12-18T20:48:28.617Z,16.90
2022-12-18T20:51:32.312Z,18.57
2022-12-18T20:54:36.146Z,20.10
2022-12-18T20:57:42.275Z,19.23
2022-12-18T21:00:45.983Z,20.07
2022-12-18T21:03:49.213Z,19.07
2022-12-18T21:06:57.995Z,19.70
2022-12-18T21:10:05.028Z,19.43
2022-12-18T21:13:07.898Z,20.47
2022-12-18T21:16:12.457Z,19.63
2022-12-18T21:19:19.880Z,19.70
2022-12-18T21:22:21.997Z,20.00
2022-12-18T21:25:24.449Z,20.70
2022-12-18T21:28:26.566Z,20.10
2022-12-18T21:31:32.055Z,19.40
2022-12-18T21:34:34.394Z,19.20
2022-12-18T21:37:37.080Z,19.00
2022-12-18T21:40:39.762Z,20.70
2022-12-18T21:44:00.307Z,20.53
2022-12-18T21:47:15.148Z,21.43
2022-12-18T21:50:24.032Z,19.07
2022-12-18T21:53:26.771Z,19.83
2022-12-18T21:56:45.344Z,19.57
2022-12-18T21:59:47.369Z,20.73
2022-12-18T22:03:01.113Z,20.10
2022-12-18T22:06:12.558Z,20.57
2022-12-18T22:09:17.651Z,19.60
2022-12-18T22:12:35.801Z,17.90
2022-12-18T22:15:45.314Z,18.73
2022-12-18T22:18:47.393Z,19.50
2022-12-18T22:21:49.671Z,19.20
2022-12-18T22:24:51.839Z,18.80
2022-12-18T22:28:12.502Z,18.63
2022-12-18T22:31:14.677Z,18.90
2022-12-18T22:34:21.894Z,18.97
2022-12-18T22:37:24.972Z,18.87
2022-12-18T22:40:27.814Z,18.23
2022-12-18T22:43:30.566Z,18.07
2022-12-18T22:46:35.942Z,17.87
2022-12-18T22:49:38.952Z,18.20
2022-12-18T22:52:41.552Z,18.73
2022-12-18T22:55:43.640Z,18.13
2022-12-18T22:58:49.375Z,18.27
2022-12-18T23:01:58.001Z,17.63
2022-12-18T23:05:01.276Z,16.60
2022-12-18T23:08:03.387Z,17.60
2022-12-18T23:11:06.423Z,18.37
2022-12-18T23:14:08.607Z,16.83
2022-12-18T23:17:10.765Z,16.07
2022-12-18T23:20:12.931Z,17.97
2022-12-18T23:23:15.065Z,16.20
2022-12-18T23:26:20.155Z,17.60
2022-12-18T23:29:22.184Z,16.73
2022-12-18T23:32:24.177Z,16.37
2022-12-18T23:35:26.790Z,16.63
2022-12-18T23:38:29.989Z,16.10
2022-12-18T23:41:32.989Z,15.07
2022-12-18T23:44:35.234Z,15.50
2022-12-18T23:47:37.399Z,15.53
2022-12-18T23:50:39.445Z,17.00
2022-12-18T23:53:41.984Z,15.47
2022-12-18T23:56:44.015Z,16.20
2022-12-18T23:59:46.129Z,15.57
